Time;durP1;ratioP1;P1;durP2;ratioP2;P2;SDS_P1;SDS_P2;PMS_P1;PMS_P2;Temp;Humidity;BMP_temperature;BMP_pressure;BME280_temperature;BME280_humidity;BME280_pressure;Samples;Min_cycle;Max_cycle;Signal;HPM_P1;HPM_P2
2023/07/10 00:01:27;;;;;;;7.80;5.93;;;;;;;22.24;100.00;92688.59;5055897;28;20127;-72
2023/07/10 00:03:53;;;;;;;10.65;6.43;;;;;;;22.21;100.00;92687.28;5055189;28;20106;-72
2023/07/10 00:06:19;;;;;;;9.20;6.75;;;;;;;22.11;100.00;92695.44;5064001;28;20120;-72
2023/07/10 00:08:45;;;;;;;9.10;6.03;;;;;;;22.08;100.00;92632.53;5056116;28;20044;-72
2023/07/10 00:11:16;;;;;;;9.43;6.25;;;;;;;22.04;100.00;92626.16;5054320;28;20083;-72
2023/07/10 00:13:41;;;;;;;7.18;5.75;;;;;;;22.02;100.00;92612.25;5052111;28;20101;-71
2023/07/10 00:16:26;;;;;;;7.70;6.18;;;;;;;22.02;100.00;92588.97;5050996;28;20105;-71
2023/07/10 00:18:52;;;;;;;9.77;6.05;;;;;;;22.00;100.00;92593.81;5056504;28;20422;-72
2023/07/10 00:21:17;;;;;;;6.93;6.22;;;;;;;22.00;100.00;92553.66;5061273;28;20051;-72
2023/07/10 00:23:44;;;;;;;8.85;6.55;;;;;;;21.94;100.00;92536.03;5042509;28;20497;-72
2023/07/10 00:26:22;;;;;;;9.30;6.82;;;;;;;21.90;100.00;92535.03;5059196;28;20073;-72
2023/07/10 00:28:50;;;;;;;8.70;6.43;;;;;;;21.89;100.00;92520.06;5050392;28;20520;-72
2023/07/10 00:31:16;;;;;;;6.97;6.38;;;;;;;21.87;100.00;92514.19;5055454;28;20032;-72
2023/07/10 00:33:41;;;;;;;7.28;6.55;;;;;;;21.86;100.00;92500.00;5055752;28;20017;-72
2023/07/10 00:36:30;;;;;;;8.43;6.55;;;;;;;21.82;100.00;92482.94;5055665;28;20021;-71
2023/07/10 00:38:57;;;;;;;10.82;6.65;;;;;;;21.78;100.00;92507.91;5055507;28;20622;-72
2023/07/10 00:41:26;;;;;;;9.50;6.25;;;;;;;21.78;100.00;92486.50;5053917;28;20013;-71
2023/07/10 00:43:57;;;;;;;10.23;6.65;;;;;;;21.74;100.00;92420.13;5055320;28;20104;-72
2023/07/10 00:46:35;;;;;;;8.77;7.05;;;;;;;21.72;100.00;92379.47;5054356;28;20013;-71
2023/07/10 00:49:18;;;;;;;9.27;7.30;;;;;;;21.68;100.00;92346.34;5049754;28;20592;-72
2023/07/10 00:52:12;;;;;;;7.97;6.18;;;;;;;21.65;100.00;92306.00;5055469;28;20120;-72
2023/07/10 00:54:44;;;;;;;10.52;6.75;;;;;;;21.65;100.00;92319.38;5042518;28;20041;-72
2023/07/10 00:57:14;;;;;;;10.10;6.22;;;;;;;21.56;100.00;92348.69;5040250;28;20489;-72
2023/07/10 00:59:40;;;;;;;6.97;6.05;;;;;;;21.37;100.00;92354.03;5055513;28;20072;-72
2023/07/10 01:02:12;;;;;;;8.90;6.40;;;;;;;21.36;100.00;92339.09;5044484;28;20078;-72
2023/07/10 01:04:40;;;;;;;8.75;6.72;;;;;;;21.33;100.00;92340.44;5055622;28;20481;-72
2023/07/10 01:07:13;;;;;;;11.27;6.90;;;;;;;21.31;100.00;92326.56;5054827;28;20401;-72
2023/07/10 01:09:42;;;;;;;9.90;7.38;;;;;;;21.22;100.00;92321.13;5055050;28;20432;-72
2023/07/10 01:12:08;;;;;;;7.55;6.80;;;;;;;21.15;100.00;92249.25;5054588;28;20028;-72
2023/07/10 01:14:35;;;;;;;6.82;6.07;;;;;;;21.11;100.00;92210.84;5042334;28;20032;-72
2023/07/10 01:17:10;;;;;;;8.50;6.82;;;;;;;21.09;100.00;92161.41;5054641;28;20131;-72
2023/07/10 01:19:36;;;;;;;;;;;;;;;21.06;100.00;92114.63;5059987;28;20421;-72
2023/07/10 01:22:03;;;;;;;10.45;7.22;;;;;;;21.08;100.00;91986.00;5054518;28;19942;-72
2023/07/10 01:24:29;;;;;;;7.18;6.45;;;;;;;21.09;100.00;92116.72;5054867;28;20017;-72
2023/07/10 01:26:56;;;;;;;7.30;6.47;;;;;;;21.11;100.00;92137.81;5058636;28;20073;-71
2023/07/10 01:29:30;;;;;;;7.97;7.20;;;;;;;21.11;100.00;92146.66;5054863;28;20032;-72
2023/07/10 01:31:55;;;;;;;8.27;7.00;;;;;;;21.18;100.00;92221.13;5054454;28;20503;-72
2023/07/10 01:34:27;;;;;;;9.85;6.88;;;;;;;21.18;100.00;92433.22;5052925;28;20020;-72
2023/07/10 01:36:54;;;;;;;9.25;7.28;;;;;;;21.18;100.00;92430.53;5054620;28;20090;-72
2023/07/10 01:39:41;;;;;;;9.27;7.20;;;;;;;21.21;100.00;92434.50;5052095;28;20025;-72
2023/07/10 01:42:07;;;;;;;9.70;6.55;;;;;;;21.17;100.00;92477.09;5036276;28;20021;-71
2023/07/10 01:44:36;;;;;;;8.80;6.70;;;;;;;21.10;100.00;92524.78;5048037;28;20033;-72
2023/07/10 01:47:03;;;;;;;8.27;6.85;;;;;;;20.98;100.00;92586.66;5051383;28;20481;-72
2023/07/10 01:49:34;;;;;;;6.97;6.35;;;;;;;20.87;100.00;92626.06;5054080;28;20025;-72
2023/07/10 01:52:02;;;;;;;10.93;6.10;;;;;;;20.69;100.00;92624.88;5053544;28;20025;-72
2023/07/10 01:54:28;;;;;;;7.93;6.90;;;;;;;20.69;100.00;92559.94;5050076;28;20047;-72
2023/07/10 01:56:54;;;;;;;13.13;7.65;;;;;;;20.69;100.00;92522.53;5046908;28;20032;-72
2023/07/10 01:59:19;;;;;;;14.70;7.95;;;;;;;20.69;100.00;92466.41;5042500;28;20020;-72
2023/07/10 02:01:46;;;;;;;10.60;6.63;;;;;;;20.67;100.00;92441.81;5054052;28;20040;-72
2023/07/10 02:04:11;;;;;;;13.00;7.57;;;;;;;20.66;100.00;92414.31;5053775;28;20024;-72
2023/07/10 02:06:38;;;;;;;8.18;7.30;;;;;;;20.66;100.00;92387.59;5053707;28;20021;-72
2023/07/10 02:09:04;;;;;;;8.45;6.90;;;;;;;20.67;100.00;92373.16;5054160;28;20493;-71
2023/07/10 02:11:30;;;;;;;9.13;7.28;;;;;;;20.76;100.00;92375.97;5052154;28;20025;-72
2023/07/10 02:13:55;;;;;;;9.13;6.43;;;;;;;20.81;100.00;92412.56;5042565;28;20497;-73
2023/07/10 02:16:21;;;;;;;10.20;7.00;;;;;;;20.82;100.00;92424.84;5054226;28;20017;-73
2023/07/10 02:18:46;;;;;;;11.10;7.22;;;;;;;20.79;100.00;92420.06;5053780;28;20043;-72
2023/07/10 02:21:11;;;;;;;10.18;7.10;;;;;;;20.77;100.00;92409.63;5054579;28;20025;-73
2023/07/10 02:23:38;;;;;;;7.30;6.60;;;;;;;20.70;100.00;92377.91;5053738;28;20059;-72
2023/07/10 02:26:04;;;;;;;8.48;7.10;;;;;;;20.68;100.00;92275.84;5055199;28;20031;-72
2023/07/10 02:28:30;;;;;;;9.02;6.97;;;;;;;20.68;100.00;92249.13;5053443;28;20503;-73
2023/07/10 02:30:55;;;;;;;8.80;6.55;;;;;;;20.69;100.00;92233.91;5053199;28;20024;-73
2023/07/10 02:33:22;;;;;;;11.18;6.63;;;;;;;20.70;100.00;92217.56;5040058;28;20115;-72
2023/07/10 02:35:48;;;;;;;7.53;6.75;;;;;;;20.78;100.00;92216.13;5052678;28;20029;-71
2023/07/10 02:38:13;;;;;;;9.10;6.95;;;;;;;20.80;100.00;92231.91;5053515;28;20021;-72
2023/07/10 02:40:40;;;;;;;11.10;7.25;;;;;;;20.77;100.00;92254.63;5052063;28;20036;-71
2023/07/10 02:43:05;;;;;;;11.40;7.18;;;;;;;20.75;100.00;92283.50;5053452;28;20032;-71
2023/07/10 02:45:31;;;;;;;7.43;6.45;;;;;;;20.72;100.00;92281.41;5052721;28;20509;-71
2023/07/10 02:47:56;;;;;;;11.13;6.72;;;;;;;20.68;100.00;92297.22;5050031;28;20448;-72
2023/07/10 02:50:21;;;;;;;11.55;7.45;;;;;;;20.66;100.00;92288.72;5053098;28;20028;-72
2023/07/10 02:52:47;;;;;;;8.95;6.72;;;;;;;20.60;100.00;92197.13;5052665;28;20094;-72
2023/07/10 02:55:12;;;;;;;11.27;6.68;;;;;;;20.60;100.00;92178.41;5048935;28;20148;-72
2023/07/10 02:57:38;;;;;;;10.55;7.50;;;;;;;20.57;100.00;92162.97;5053610;28;20045;-72
2023/07/10 03:00:04;;;;;;;7.70;6.90;;;;;;;20.52;100.00;92162.25;5053429;28;20048;-72
2023/07/10 03:02:30;;;;;;;13.18;7.88;;;;;;;20.45;100.00;92166.09;5045994;28;20017;-75
2023/07/10 03:04:55;;;;;;;9.23;6.80;;;;;;;20.46;100.00;92164.22;5059414;28;20032;-72
2023/07/10 03:07:21;;;;;;;8.40;6.60;;;;;;;20.44;100.00;92185.88;5052009;28;20055;-71
2023/07/10 03:09:46;;;;;;;9.40;7.18;;;;;;;20.38;100.00;92172.88;5053015;28;20039;-70
2023/07/10 03:12:12;;;;;;;8.23;7.50;;;;;;;20.35;100.00;92152.91;5053130;28;20075;-72
2023/07/10 03:14:37;;;;;;;8.35;7.32;;;;;;;20.30;100.00;92132.38;5051461;28;20029;-72
2023/07/10 03:17:04;;;;;;;8.68;6.90;;;;;;;20.24;100.00;92093.50;5053561;28;20080;-71
2023/07/10 03:19:32;;;;;;;10.10;7.47;;;;;;;20.22;100.00;92066.25;5058643;28;20137;-72
2023/07/10 03:21:58;;;;;;;9.10;7.10;;;;;;;20.23;100.00;92048.38;5052930;28;20056;-71
2023/07/10 03:24:24;;;;;;;8.45;7.22;;;;;;;20.21;100.00;92051.31;5053422;28;20024;-71
2023/07/10 03:26:49;;;;;;;9.20;7.30;;;;;;;20.14;100.00;92072.28;5059123;28;20124;-72
2023/07/10 03:29:16;;;;;;;8.85;7.25;;;;;;;20.09;100.00;92077.69;5039750;28;20091;-71
2023/07/10 03:31:42;;;;;;;15.05;7.32;;;;;;;20.07;100.00;92110.00;5045938;28;20087;-71
2023/07/10 03:34:10;;;;;;;11.82;7.82;;;;;;;20.13;100.00;92086.72;5053650;28;20060;-73
2023/07/10 03:36:36;;;;;;;11.05;7.60;;;;;;;20.13;100.00;92082.19;5053119;28;20052;-73
2023/07/10 03:39:01;;;;;;;10.85;7.25;;;;;;;20.10;100.00;92073.94;5055900;28;20028;-71
2023/07/10 03:41:27;;;;;;;8.90;7.13;;;;;;;20.07;100.00;92058.50;5055413;28;20021;-71
2023/07/10 03:43:53;;;;;;;10.93;8.10;;;;;;;20.07;100.00;92050.50;5056680;28;20398;-71
2023/07/10 03:46:19;;;;;;;9.50;7.65;;;;;;;20.10;100.00;92041.91;5056886;28;20490;-72
2023/07/10 03:48:45;;;;;;;10.57;7.63;;;;;;;20.12;100.00;92040.53;5056480;28;20116;-71
2023/07/10 03:51:10;;;;;;;8.07;7.30;;;;;;;20.13;100.00;92060.00;5056381;28;20033;-71
2023/07/10 03:53:36;;;;;;;12.43;7.47;;;;;;;20.15;100.00;92066.66;5056278;28;20067;-71
2023/07/10 03:56:02;;;;;;;8.65;7.85;;;;;;;20.16;100.00;92068.25;5056908;28;20025;-71
2023/07/10 03:58:30;;;;;;;10.55;7.03;;;;;;;20.14;100.00;92069.59;5056213;28;20591;-71
2023/07/10 04:00:57;;;;;;;12.23;8.20;;;;;;;20.13;100.00;92071.50;5056199;28;20031;-71
2023/07/10 04:03:25;;;;;;;13.00;7.63;;;;;;;20.11;100.00;92073.63;5055813;28;20020;-72
2023/07/10 04:05:52;;;;;;;13.50;7.32;;;;;;;20.08;100.00;92084.13;5057064;28;20638;-72
2023/07/10 04:08:29;;;;;;;9.05;7.35;;;;;;;20.07;100.00;92055.84;5056122;28;20493;-71
2023/07/10 04:10:57;;;;;;;13.90;7.53;;;;;;;20.07;100.00;92024.56;5053131;28;20260;-72
2023/07/10 04:13:23;;;;;;;9.55;7.22;;;;;;;20.08;100.00;91974.66;5042917;28;20071;-72
2023/07/10 04:15:59;;;;;;;14.02;7.38;;;;;;;20.11;100.00;91974.06;5052121;28;20021;-71
2023/07/10 04:18:33;;;;;;;10.05;7.45;;;;;;;20.11;100.00;92001.53;5055871;28;20013;-71
2023/07/10 04:20:59;;;;;;;10.73;7.60;;;;;;;20.12;100.00;92043.22;5061307;28;20033;-72
2023/07/10 04:23:25;;;;;;;9.27;7.30;;;;;;;20.07;100.00;92050.50;5050676;28;20018;-71
2023/07/10 04:25:50;;;;;;;9.63;8.23;;;;;;;20.06;100.00;92027.56;5048876;28;20028;-71
2023/07/10 04:28:16;;;;;;;11.23;7.75;;;;;;;20.00;100.00;92056.97;5056619;28;20576;-71
2023/07/10 04:30:41;;;;;;;8.32;7.38;;;;;;;19.97;100.00;92060.22;5055863;28;20021;-71
2023/07/10 04:33:10;;;;;;;12.77;8.23;;;;;;;19.99;100.00;92050.06;5054022;28;20063;-71
2023/07/10 04:35:35;;;;;;;10.02;7.57;;;;;;;20.02;100.00;92044.16;5055833;28;20025;-72
2023/07/10 04:38:01;;;;;;;13.65;7.78;;;;;;;20.00;100.00;92027.59;5054509;28;20035;-71
2023/07/10 04:40:26;;;;;;;11.07;7.55;;;;;;;19.96;100.00;92047.19;5054230;28;20028;-71
2023/07/10 04:42:53;;;;;;;11.40;7.80;;;;;;;20.00;100.00;92048.19;5055438;28;20068;-71
2023/07/10 04:45:18;;;;;;;8.63;7.65;;;;;;;20.07;100.00;92045.16;5055390;28;20025;-71
2023/07/10 04:47:44;;;;;;;10.43;7.13;;;;;;;20.03;100.00;92037.72;5055508;28;20028;-72
2023/07/10 04:50:12;;;;;;;9.35;7.70;;;;;;;20.02;100.00;91990.75;5054672;28;20047;-71
2023/07/10 04:52:37;;;;;;;8.70;7.80;;;;;;;19.99;100.00;91772.44;5055321;28;20579;-71
2023/07/10 04:55:03;;;;;;;12.27;8.02;;;;;;;20.05;100.00;91695.72;5051115;28;20120;-71
2023/07/10 04:57:29;;;;;;;8.50;7.28;;;;;;;20.08;100.00;91679.13;5049115;28;20040;-71
2023/07/10 04:59:54;;;;;;;9.20;6.95;;;;;;;20.13;100.00;91688.91;5055418;28;20021;-71
2023/07/10 05:02:23;;;;;;;11.25;7.55;;;;;;;20.17;100.00;91708.56;5041987;28;20021;-71
2023/07/10 05:04:48;;;;;;;11.55;7.97;;;;;;;20.21;100.00;91738.91;5054397;28;20020;-71
2023/07/10 05:07:14;;;;;;;12.55;7.70;;;;;;;20.32;100.00;91785.69;5042514;28;20032;-71
2023/07/10 05:09:40;;;;;;;9.73;7.60;;;;;;;20.38;100.00;91813.09;5048668;28;20049;-71
2023/07/10 05:12:06;;;;;;;9.73;7.47;;;;;;;20.49;100.00;91827.03;5048198;28;20037;-71
2023/07/10 05:14:32;;;;;;;11.05;7.75;;;;;;;20.66;100.00;91885.22;5054911;28;20078;-71
2023/07/10 05:16:57;;;;;;;10.25;7.93;;;;;;;20.77;100.00;91917.88;5054912;28;20029;-71
2023/07/10 05:19:23;;;;;;;8.18;7.35;;;;;;;20.85;100.00;91951.16;5059012;28;20020;-71
2023/07/10 05:21:48;;;;;;;18.55;8.30;;;;;;;20.94;100.00;91983.34;5048870;28;20024;-71
2023/07/10 05:24:14;;;;;;;13.15;6.93;;;;;;;20.99;100.00;92029.47;5046228;28;20037;-71
2023/07/10 05:26:39;;;;;;;9.90;7.72;;;;;;;21.12;100.00;92051.97;5057167;28;20033;-71
2023/07/10 05:29:05;;;;;;;11.02;7.78;;;;;;;21.21;100.00;92097.50;5053553;28;20155;-71
2023/07/10 05:31:30;;;;;;;11.13;7.70;;;;;;;21.26;100.00;92137.56;5054881;28;20036;-71
2023/07/10 05:33:56;;;;;;;14.57;7.88;;;;;;;21.29;100.00;92178.94;5054570;28;20057;-71
2023/07/10 05:36:21;;;;;;;9.60;7.00;;;;;;;21.31;100.00;92219.56;5054232;28;20032;-71
2023/07/10 05:38:48;;;;;;;16.55;8.55;;;;;;;21.38;100.00;92209.31;5054199;28;20025;-71
2023/07/10 05:41:18;;;;;;;12.57;8.70;;;;;;;21.35;100.00;92199.19;5054228;28;20033;-71
2023/07/10 05:43:44;;;;;;;10.88;7.78;;;;;;;21.32;100.00;92211.25;5054348;28;20017;-71
2023/07/10 05:46:11;;;;;;;15.20;7.95;;;;;;;21.42;100.00;92222.88;5046245;28;20036;-71
2023/07/10 05:48:36;;;;;;;8.90;7.18;;;;;;;21.46;100.00;92262.13;5046004;28;20029;-71
2023/07/10 05:51:02;;;;;;;13.23;7.15;;;;;;;21.51;100.00;92292.56;5054629;28;20035;-71
2023/07/10 05:53:27;;;;;;;14.40;7.57;;;;;;;21.57;100.00;92323.50;5052810;28;20028;-71
2023/07/10 05:55:54;;;;;;;11.65;7.20;;;;;;;21.67;100.00;92355.47;5053792;28;20101;-71
2023/07/10 05:58:22;;;;;;;8.52;6.95;;;;;;;21.80;100.00;92361.97;5046683;28;20025;-71
2023/07/10 06:00:50;;;;;;;12.07;7.57;;;;;;;21.97;100.00;92400.78;5063248;28;20027;-71
2023/07/10 06:03:15;;;;;;;10.50;7.03;;;;;;;22.08;100.00;92505.88;5053274;28;20462;-72
2023/07/10 06:05:41;;;;;;;8.48;7.00;;;;;;;22.12;100.00;92568.47;5053578;28;20025;-71
2023/07/10 06:08:07;;;;;;;11.57;7.75;;;;;;;22.25;100.00;92599.91;5054336;28;20025;-71
2023/07/10 06:10:34;;;;;;;12.98;7.80;;;;;;;22.41;100.00;92626.44;5053927;28;20033;-70
2023/07/10 06:12:59;;;;;;;10.18;7.38;;;;;;;22.53;100.00;92720.66;5054232;28;20162;-70
2023/07/10 06:15:25;;;;;;;11.98;7.65;;;;;;;22.63;100.00;92780.56;5053984;28;20254;-70
2023/07/10 06:17:50;;;;;;;8.82;7.28;;;;;;;22.66;100.00;92798.75;5053701;28;20025;-71
2023/07/10 06:20:16;;;;;;;10.00;7.70;;;;;;;22.77;100.00;92794.03;5054425;28;20036;-71
2023/07/10 06:22:42;;;;;;;9.30;7.60;;;;;;;22.82;100.00;92869.88;5053839;28;20455;-72
2023/07/10 06:25:07;;;;;;;13.85;7.55;;;;;;;22.91;100.00;92922.88;5053479;28;20021;-71
2023/07/10 06:27:33;;;;;;;12.45;7.88;;;;;;;22.97;100.00;93004.88;5055456;28;20040;-71
2023/07/10 06:29:59;;;;;;;10.82;7.05;;;;;;;23.05;100.00;93090.09;5053474;28;20029;-71
2023/07/10 06:32:25;;;;;;;10.07;7.90;;;;;;;23.18;100.00;93118.94;5053509;28;20021;-71
2023/07/10 06:34:50;;;;;;;10.82;7.80;;;;;;;23.23;100.00;93173.66;5053312;28;20139;-72
2023/07/10 06:37:16;;;;;;;12.18;7.40;;;;;;;23.33;100.00;93184.34;5045622;28;20021;-71
2023/07/10 06:39:41;;;;;;;9.45;6.15;;;;;;;23.54;100.00;93144.63;5052083;28;20067;-71
2023/07/10 06:42:07;;;;;;;17.88;7.57;;;;;;;23.74;100.00;93159.69;5040403;28;20025;-71
2023/07/10 06:44:32;;;;;;;9.23;7.07;;;;;;;23.91;100.00;93193.38;5053498;28;20025;-72
2023/07/10 06:46:58;;;;;;;18.42;7.72;;;;;;;24.14;100.00;93150.66;5050988;28;20255;-72
2023/07/10 06:49:23;;;;;;;16.67;8.23;;;;;;;24.34;100.00;93183.72;5051613;28;20028;-72
2023/07/10 06:51:48;;;;;;;10.93;7.40;;;;;;;24.63;100.00;93212.38;5051799;28;20028;-71
2023/07/10 06:54:14;;;;;;;9.43;7.38;;;;;;;24.93;100.00;93278.41;5051432;28;20306;-72
2023/07/10 06:56:39;;;;;;;9.90;6.57;;;;;;;25.09;100.00;93291.66;5053549;28;20417;-72
2023/07/10 06:59:05;;;;;;;11.13;6.82;;;;;;;25.15;100.00;93350.50;5052409;28;20028;-72
2023/07/10 07:01:30;;;;;;;11.80;7.15;;;;;;;25.26;100.00;93398.81;5053281;28;20047;-72
2023/07/10 07:03:55;;;;;;;14.45;7.03;;;;;;;25.57;100.00;93401.88;5054024;28;20017;-72
2023/07/10 07:06:21;;;;;;;18.40;7.97;;;;;;;26.08;100.00;93436.41;5053542;28;20017;-72
2023/07/10 07:08:48;;;;;;;12.02;6.78;;;;;;;26.34;100.00;93454.88;5053632;28;20666;-72
2023/07/10 07:11:14;;;;;;;10.18;6.65;;;;;;;26.74;100.00;93563.19;5052967;28;20021;-72
2023/07/10 07:13:39;;;;;;;12.88;7.25;;;;;;;27.08;100.00;93575.59;5054874;28;20631;-72
2023/07/10 07:16:05;;;;;;;13.82;6.63;;;;;;;27.43;100.00;93586.81;5056114;28;20028;-72
2023/07/10 07:18:33;;;;;;;10.90;6.30;;;;;;;27.50;100.00;93613.44;5057385;28;20082;-72
2023/07/10 07:20:59;;;;;;;14.07;6.53;;;;;;;27.57;100.00;93632.78;5061964;28;20013;-72
2023/07/10 07:23:27;;;;;;;14.13;6.45;;;;;;;27.82;100.00;93644.19;5056841;28;20044;-72
2023/07/10 07:25:56;;;;;;;15.95;6.40;;;;;;;27.79;100.00;93706.16;5057605;28;20025;-72
2023/07/10 07:28:22;;;;;;;12.07;6.20;;;;;;;27.97;100.00;93745.03;5057320;28;20078;-72
2023/07/10 07:30:48;;;;;;;6.88;6.18;;;;;;;27.97;100.00;93756.66;5056736;28;20112;-72
2023/07/10 07:33:18;;;;;;;14.40;6.88;;;;;;;28.21;100.00;93844.94;5056858;28;20077;-71
2023/07/10 07:35:44;;;;;;;12.43;7.05;;;;;;;28.12;100.00;93890.78;5055214;28;20098;-71
2023/07/10 07:38:09;;;;;;;9.88;6.75;;;;;;;28.20;100.00;93883.09;5055843;28;20029;-72
2023/07/10 07:40:36;;;;;;;11.18;6.75;;;;;;;28.30;100.00;93855.88;5056549;28;20028;-71
2023/07/10 07:43:01;;;;;;;9.68;6.05;;;;;;;28.33;100.00;93866.09;5055811;28;20021;-69
2023/07/10 07:45:27;;;;;;;9.32;6.25;;;;;;;28.20;100.00;93905.56;5054798;28;20017;-70
2023/07/10 07:47:52;;;;;;;12.60;6.32;;;;;;;28.22;100.00;93925.00;5056139;28;20107;-70
2023/07/10 07:50:18;;;;;;;12.98;6.28;;;;;;;28.43;100.00;93908.41;5056178;28;20393;-70
2023/07/10 07:52:43;;;;;;;12.50;6.63;;;;;;;28.65;100.00;93928.56;5056115;28;20482;-69
2023/07/10 07:55:09;;;;;;;9.18;5.85;;;;;;;28.90;100.00;93953.56;5050579;28;20049;-70
2023/07/10 07:57:36;;;;;;;9.18;5.80;;;;;;;29.21;100.00;93952.94;5049780;28;20021;-70
2023/07/10 08:00:02;;;;;;;9.77;6.47;;;;;;;29.25;100.00;94000.81;5056295;28;20045;-70
2023/07/10 08:02:27;;;;;;;11.48;6.68;;;;;;;29.23;100.00;94005.75;5055641;28;20055;-70
2023/07/10 08:04:53;;;;;;;8.35;5.63;;;;;;;28.56;100.00;94156.59;5055257;28;20599;-70
2023/07/10 08:07:19;;;;;;;16.70;6.80;;;;;;;28.63;100.00;94131.03;5054286;28;20028;-70
2023/07/10 08:09:44;;;;;;;10.32;6.32;;;;;;;28.81;100.00;94092.34;5055835;28;20109;-69
2023/07/10 08:12:09;;;;;;;17.35;6.07;;;;;;;29.22;100.00;94117.09;5042670;28;20044;-69
2023/07/10 08:14:36;;;;;;;10.73;6.40;;;;;;;29.30;100.00;94135.41;5056245;28;20033;-70
2023/07/10 08:17:02;;;;;;;10.55;6.20;;;;;;;29.66;100.00;94188.97;5055066;28;20135;-70
2023/07/10 08:19:28;;;;;;;12.02;6.13;;;;;;;29.72;100.00;94211.38;5059909;28;20056;-70
2023/07/10 08:21:57;;;;;;;13.52;6.07;;;;;;;29.81;100.00;94181.66;5056154;28;20154;-70
2023/07/10 08:24:24;;;;;;;10.70;5.80;;;;;;;30.15;100.00;94240.13;5043176;28;20033;-70
2023/07/10 08:26:49;;;;;;;11.23;6.13;;;;;;;30.05;100.00;94272.91;5054432;28;20025;-70
2023/07/10 08:29:31;;;;;;;9.20;5.78;;;;;;;29.90;100.00;94241.41;5055492;28;20036;-70
2023/07/10 08:31:58;;;;;;;10.05;5.70;;;;;;;30.19;100.00;94230.31;5036776;28;20034;-69
2023/07/10 08:34:25;;;;;;;15.80;6.32;;;;;;;30.28;100.00;94219.50;5033140;28;20029;-70
2023/07/10 08:36:52;;;;;;;12.20;7.22;;;;;;;30.14;100.00;94214.91;5054143;28;20021;-70
2023/07/10 08:39:17;;;;;;;10.52;6.00;;;;;;;30.24;100.00;94222.03;5043857;28;20545;-70
2023/07/10 08:41:46;;;;;;;9.18;6.30;;;;;;;30.40;100.00;94214.38;5055499;28;20051;-70
2023/07/10 08:44:11;;;;;;;16.88;8.60;;;;;;;30.54;100.00;94170.13;5053620;28;20021;-70
2023/07/10 08:46:37;;;;;;;11.35;6.90;;;;;;;30.57;100.00;94219.16;5042462;28;20025;-70
2023/07/10 08:49:16;;;;;;;12.98;5.63;;;;;;;30.81;100.00;94277.09;5054897;28;20032;-70
2023/07/10 08:51:57;;;;;;;10.73;5.88;;;;;;;30.38;100.00;94298.03;5054986;28;20029;-70
2023/07/10 08:54:23;;;;;;;14.30;5.80;;;;;;;30.47;100.00;94278.31;5048552;28;20076;-70
2023/07/10 08:57:15;;;;;;;7.90;5.60;;;;;;;30.81;100.00;94230.91;5055020;28;20063;-70
2023/07/10 09:00:07;;;;;;;9.45;5.85;;;;;;;30.87;100.00;94257.66;5054818;28;20041;-70
2023/07/10 09:02:53;;;;;;;9.73;5.25;;;;;;;30.69;100.00;94253.19;5054453;28;20071;-70
2023/07/10 09:05:30;;;;;;;10.85;5.60;;;;;;;30.96;100.00;94172.69;5046026;28;20087;-70
2023/07/10 09:08:03;;;;;;;11.20;5.43;;;;;;;30.93;100.00;94241.25;5054213;28;20024;-70
2023/07/10 09:10:46;;;;;;;9.07;5.45;;;;;;;31.04;100.00;94220.84;5054967;28;20028;-70
2023/07/10 09:13:18;;;;;;;10.15;5.68;;;;;;;31.20;100.00;94212.38;5044228;28;20037;-70
2023/07/10 09:15:56;;;;;;;13.23;5.55;;;;;;;31.25;100.00;94259.25;5053484;28;20030;-70
2023/07/10 09:18:21;;;;;;;9.90;5.63;;;;;;;31.33;100.00;94246.03;5054061;28;20444;-70
2023/07/10 09:20:53;;;;;;;9.03;6.10;;;;;;;31.40;100.00;94281.75;5061422;28;20033;-70
2023/07/10 09:23:33;;;;;;;13.23;5.15;;;;;;;30.83;100.00;94239.56;5054488;28;20668;-70
2023/07/10 09:26:09;;;;;;;11.30;5.25;;;;;;;31.20;100.00;94240.38;5056747;28;20048;-70
2023/07/10 09:28:38;;;;;;;14.00;5.20;;;;;;;31.85;100.00;94297.25;5043689;28;20036;-70
2023/07/10 09:31:09;;;;;;;7.43;5.28;;;;;;;31.45;100.00;94295.22;5045859;28;20393;-70
2023/07/10 09:33:49;;;;;;;15.88;6.22;;;;;;;31.33;100.00;94232.44;5047981;28;20037;-70
2023/07/10 09:36:20;;;;;;;9.05;5.10;;;;;;;31.57;100.00;94291.94;5050603;28;20096;-70
2023/07/10 09:38:48;;;;;;;10.75;5.95;;;;;;;31.34;100.00;94282.97;5054546;28;20025;-70
2023/07/10 09:41:27;;;;;;;8.63;5.55;;;;;;;31.77;100.00;94235.44;5054391;28;20111;-70
2023/07/10 09:44:12;;;;;;;12.13;5.68;;;;;;;31.64;100.00;94239.84;5054359;28;20429;-70
2023/07/10 09:46:38;;;;;;;9.93;5.53;;;;;;;30.91;100.00;94240.75;5043541;28;20024;-70
2023/07/10 09:49:14;;;;;;;8.52;5.22;;;;;;;31.20;100.00;94228.69;5040948;28;20026;-71
2023/07/10 09:52:02;;;;;;;11.00;5.80;;;;;;;31.48;100.00;94332.66;5044485;28;20021;-70
2023/07/10 09:54:39;;;;;;;14.85;5.90;;;;;;;31.76;100.00;94299.09;5049211;28;20049;-70
2023/07/10 09:57:12;;;;;;;14.93;5.78;;;;;;;32.12;100.00;94309.06;5053083;28;20043;-70
2023/07/10 09:59:38;;;;;;;10.68;5.68;;;;;;;32.03;100.00;94359.94;5053923;28;20035;-70
2023/07/10 10:02:34;;;;;;;9.27;5.22;;;;;;;32.00;100.00;94383.09;5052668;28;20482;-70
2023/07/10 10:05:00;;;;;;;11.80;5.65;;;;;;;31.50;100.00;94373.94;5051339;28;20037;-70
2023/07/10 10:07:25;;;;;;;13.80;5.97;;;;;;;31.44;100.00;94320.81;5052868;28;20033;-70
2023/07/10 10:10:17;;;;;;;9.70;5.45;;;;;;;31.88;100.00;94290.38;5035923;28;20275;-69
2023/07/10 10:12:46;;;;;;;10.30;5.70;;;;;;;32.41;100.00;94348.63;5048643;28;20083;-69
2023/07/10 10:15:22;;;;;;;13.13;5.47;;;;;;;32.74;100.00;94413.59;5046010;28;20032;-70
2023/07/10 10:17:49;;;;;;;10.20;5.22;;;;;;;32.51;100.00;94391.88;5045644;28;20023;-70
2023/07/10 10:20:26;;;;;;;11.18;5.47;;;;;;;32.62;100.00;94388.91;5058006;28;20029;-70
2023/07/10 10:22:52;;;;;;;10.40;5.45;;;;;;;32.81;100.00;94364.91;5047058;28;20515;-70
2023/07/10 10:25:23;;;;;;;7.32;5.50;;;;;;;33.08;100.00;94419.50;5053473;28;20078;-70
2023/07/10 10:28:07;;;;;;;8.38;5.43;;;;;;;33.29;100.00;94400.66;5057497;28;20394;-70
2023/07/10 10:30:59;;;;;;;9.00;5.68;;;;;;;33.32;100.00;94456.44;5053481;28;20017;-70
2023/07/10 10:33:40;;;;;;;7.85;5.43;;;;;;;33.13;100.00;94525.66;5053174;28;20045;-70
2023/07/10 10:36:22;;;;;;;11.18;5.57;;;;;;;32.82;100.00;94398.41;5051658;28;20089;-70
2023/07/10 10:39:01;;;;;;;14.02;6.05;;;;;;;32.82;100.00;94388.31;5049006;28;20036;-70
2023/07/10 10:41:50;;;;;;;10.48;5.30;;;;;;;32.97;100.00;94399.94;5052233;28;20060;-70
2023/07/10 10:44:32;;;;;;;10.45;5.82;;;;;;;33.10;100.00;94393.56;5044248;28;20037;-69
2023/07/10 10:47:15;;;;;;;9.90;5.38;;;;;;;33.35;100.00;94431.25;5049711;28;20648;-70
2023/07/10 10:50:19;;;;;;;15.18;5.32;;;;;;;33.36;100.00;94427.41;5052482;28;20029;-70
2023/07/10 10:53:09;;;;;;;13.20;5.43;;;;;;;32.89;100.00;94457.94;5055351;28;20076;-70
2023/07/10 10:56:02;;;;;;;15.05;5.68;;;;;;;33.09;100.00;94391.13;5056199;28;20059;-70
2023/07/10 10:58:39;;;;;;;18.00;5.20;;;;;;;33.35;100.00;94369.38;5055028;28;20045;-70
2023/07/10 11:01:17;;;;;;;7.07;5.20;;;;;;;33.46;100.00;94388.97;5057547;28;20032;-69
2023/07/10 11:03:51;;;;;;;11.43;5.43;;;;;;;33.28;100.00;94347.25;5056922;28;20459;-69
2023/07/10 11:06:26;;;;;;;8.90;5.10;;;;;;;33.08;100.00;94374.00;5048422;28;20466;-69
2023/07/10 11:08:56;;;;;;;10.00;5.32;;;;;;;33.26;100.00;94444.88;5051698;28;20057;-69
2023/07/10 11:11:34;;;;;;;11.57;5.15;;;;;;;33.53;100.00;94655.81;5046235;28;20041;-70
2023/07/10 11:14:03;;;;;;;10.57;5.22;;;;;;;33.34;100.00;94730.44;5051564;28;20052;-70
2023/07/10 11:16:31;;;;;;;13.88;5.38;;;;;;;33.41;100.00;94700.00;5055256;28;20068;-72
2023/07/10 11:18:58;;;;;;;11.82;5.38;;;;;;;34.07;100.00;94751.25;5058888;28;20119;-68
2023/07/10 11:21:23;;;;;;;9.90;5.53;;;;;;;34.26;100.00;94613.63;5058373;28;20112;-69
2023/07/10 11:23:49;;;;;;;9.27;5.13;;;;;;;34.27;100.00;94598.88;5054249;28;20056;-69
2023/07/10 11:26:23;;;;;;;10.05;5.10;;;;;;;34.22;100.00;94577.97;5054157;28;20021;-68
2023/07/10 11:28:51;;;;;;;9.32;4.82;;;;;;;33.98;100.00;94546.47;5044014;28;20029;-69
2023/07/10 11:31:35;;;;;;;12.90;5.38;;;;;;;34.60;100.00;94494.56;5049338;28;20493;-70